Time;durP1;ratioP1;P1;durP2;ratioP2;P2;SDS_P1;SDS_P2;PMS_P1;PMS_P2;Temp;Humidity;BMP_temperature;BMP_pressure;BME280_temperature;BME280_humidity;BME280_pressure;Samples;Min_cycle;Max_cycle;Signal;HPM_P1;HPM_P2
2024/03/07 00:02:24;;;;;;;5.60;3.20;;;;;;;5.78;87.51;95309.66;110447;1276;22111;-73
2024/03/07 00:05:02;;;;;;;4.70;3.10;;;;;;;5.77;87.57;95303.90;110453;1276;22119;-73
2024/03/07 00:07:34;;;;;;;6.30;3.00;;;;;;;5.75;87.08;95301.98;110363;1276;22169;-73
2024/03/07 00:10:11;;;;;;;6.10;2.80;;;;;;;5.71;87.36;95296.94;110467;1261;22117;-72
2024/03/07 00:12:45;;;;;;;5.90;2.80;;;;;;;5.69;87.40;95296.26;110447;1276;22203;-73
2024/03/07 00:15:20;;;;;;;8.20;3.60;;;;;;;5.65;87.80;95295.75;110443;1276;22127;-73
2024/03/07 00:18:10;;;;;;;6.10;3.40;;;;;;;5.65;88.11;95291.92;110344;1276;22176;-73
2024/03/07 00:20:45;;;;;;;4.50;3.00;;;;;;;5.60;88.13;95294.55;110451;1276;22835;-73
2024/03/07 00:23:16;;;;;;;8.80;4.90;;;;;;;5.60;88.27;95292.98;110432;1276;22115;-73
2024/03/07 00:25:49;;;;;;;6.70;4.00;;;;;;;5.58;88.55;95292.30;110332;1276;22997;-72
2024/03/07 00:28:27;;;;;;;6.40;4.20;;;;;;;5.58;88.71;95295.08;110351;1276;22142;-73
2024/03/07 00:31:19;;;;;;;6.10;3.70;;;;;;;5.57;89.11;95294.73;110455;1276;22675;-73
2024/03/07 00:34:19;;;;;;;7.80;3.70;;;;;;;5.53;89.28;95292.48;110463;1276;22206;-73
2024/03/07 00:36:58;;;;;;;5.60;3.90;;;;;;;5.55;89.22;95291.09;110455;1276;22170;-72
2024/03/07 00:39:57;;;;;;;6.40;3.60;;;;;;;5.53;88.63;95290.73;110358;1276;22208;-73
2024/03/07 00:42:27;;;;;;;5.20;3.10;;;;;;;5.52;88.40;95287.95;110461;1276;22195;-72
2024/03/07 00:44:56;;;;;;;6.10;4.10;;;;;;;5.54;88.12;95288.11;110322;1276;22136;-73
2024/03/07 00:47:27;;;;;;;6.40;4.00;;;;;;;5.55;88.07;95288.46;110244;1276;22151;-72
2024/03/07 00:50:10;;;;;;;7.30;4.20;;;;;;;5.58;88.20;95285.14;110482;1276;22297;-72
2024/03/07 00:52:39;;;;;;;10.30;5.00;;;;;;;5.59;88.12;95289.86;110471;1276;22317;-72
2024/03/07 00:55:08;;;;;;;7.20;4.50;;;;;;;5.60;87.97;95292.29;110470;1276;22122;-73
2024/03/07 00:57:40;;;;;;;8.70;5.60;;;;;;;5.54;87.72;95290.39;110362;1276;22111;-72
2024/03/07 01:00:13;;;;;;;6.50;4.40;;;;;;;5.52;88.03;95288.83;110312;1277;22130;-72
2024/03/07 01:02:46;;;;;;;5.10;3.60;;;;;;;5.50;87.87;95292.32;110461;1276;22150;-73
2024/03/07 01:05:20;;;;;;;6.60;3.70;;;;;;;5.46;88.15;95294.26;110465;1276;22183;-72
2024/03/07 01:07:52;;;;;;;5.40;3.70;;;;;;;5.44;88.62;95297.05;110500;1276;22093;-73
2024/03/07 01:10:22;;;;;;;5.80;3.50;;;;;;;5.46;88.85;95294.78;110467;1276;22216;-72
2024/03/07 01:13:02;;;;;;;5.60;3.30;;;;;;;5.45;88.80;95294.09;110340;1276;22238;-72
2024/03/07 01:15:32;;;;;;;3.70;2.70;;;;;;;5.42;88.61;95294.97;110352;1276;22155;-73
2024/03/07 01:18:04;;;;;;;6.40;3.00;;;;;;;5.38;88.45;95296.73;110328;1276;22878;-73
2024/03/07 01:20:33;;;;;;;4.20;2.80;;;;;;;5.37;88.94;95298.66;110455;1276;22096;-73
2024/03/07 01:23:01;;;;;;;4.80;3.00;;;;;;;5.36;89.25;95298.83;110472;1276;22115;-73
2024/03/07 01:25:40;;;;;;;6.20;3.10;;;;;;;5.34;89.66;95296.21;110488;1276;22110;-73
2024/03/07 01:28:12;;;;;;;4.90;3.60;;;;;;;5.35;89.73;95297.61;110436;1276;22158;-73
2024/03/07 01:31:01;;;;;;;5.80;3.50;;;;;;;5.41;89.72;95297.94;110457;1276;22176;-73
2024/03/07 01:33:30;;;;;;;4.60;3.20;;;;;;;5.44;89.20;95299.50;110321;1276;22110;-73
2024/03/07 01:35:58;;;;;;;7.70;2.90;;;;;;;5.42;88.70;95296.36;110480;1276;22844;-73
2024/03/07 01:38:37;;;;;;;3.70;2.60;;;;;;;5.41;88.88;95296.36;110317;1276;22127;-73
2024/03/07 01:41:08;;;;;;;3.80;2.80;;;;;;;5.40;89.18;95295.50;110457;1276;22114;-73
2024/03/07 01:43:57;;;;;;;4.40;3.20;;;;;;;5.39;89.38;95296.90;110359;1276;22207;-73
2024/03/07 01:46:26;;;;;;;5.10;3.60;;;;;;;5.41;89.48;95298.80;110495;1276;22785;-72
2024/03/07 01:49:15;;;;;;;4.60;3.80;;;;;;;5.41;89.54;95300.55;110318;1276;22864;-72
2024/03/07 01:52:10;;;;;;;6.60;4.20;;;;;;;5.41;89.67;95302.64;110466;1276;22115;-73
2024/03/07 01:54:38;;;;;;;4.00;2.80;;;;;;;5.37;89.16;95303.88;110495;1276;22098;-73
2024/03/07 01:57:08;;;;;;;3.40;2.70;;;;;;;5.35;89.18;95303.02;110314;1276;22106;-72
2024/03/07 01:59:38;;;;;;;4.70;3.00;;;;;;;5.34;89.67;95301.45;110297;1276;22259;-73
2024/03/07 02:02:07;;;;;;;9.50;5.00;;;;;;;5.35;89.84;95299.88;110495;1276;22082;-72
2024/03/07 02:04:37;;;;;;;10.20;5.20;;;;;;;5.35;90.05;95300.23;110497;1276;22223;-72
2024/03/07 02:07:26;;;;;;;6.80;4.10;;;;;;;5.32;89.88;95299.55;110504;1276;22091;-72
2024/03/07 02:10:13;;;;;;;3.80;2.90;;;;;;;5.30;89.47;95304.09;110508;1276;22807;-73
2024/03/07 02:12:54;;;;;;;5.50;3.60;;;;;;;5.30;89.37;95302.52;110485;1276;22830;-73
2024/03/07 02:15:23;;;;;;;4.70;3.40;;;;;;;5.31;89.18;95300.76;110517;1276;22129;-72
2024/03/07 02:17:52;;;;;;;4.90;3.20;;;;;;;5.31;88.94;95302.85;110475;1276;22283;-73
2024/03/07 02:20:33;;;;;;;9.00;4.50;;;;;;;5.32;89.23;95302.86;110503;1276;22122;-73
2024/03/07 02:23:03;;;;;;;6.30;4.40;;;;;;;5.34;89.05;95303.20;110503;1276;22926;-73
2024/03/07 02:25:37;;;;;;;8.30;4.70;;;;;;;5.30;89.16;95303.73;110495;1276;22987;-72
2024/03/07 02:28:07;;;;;;;6.70;4.10;;;;;;;5.30;89.59;95305.48;110502;1276;22241;-73
2024/03/07 02:30:38;;;;;;;5.10;3.60;;;;;;;5.31;89.53;95306.17;110283;1276;22642;-72
2024/03/07 02:33:12;;;;;;;4.30;3.00;;;;;;;5.31;89.34;95305.82;110501;1276;22182;-73
2024/03/07 02:36:04;;;;;;;6.10;3.60;;;;;;;5.28;89.65;95303.39;110481;1276;22182;-72
2024/03/07 02:38:53;;;;;;;4.10;3.20;;;;;;;5.29;89.55;95304.44;110498;1276;22827;-72
2024/03/07 02:41:24;;;;;;;6.50;3.20;;;;;;;5.23;89.25;95307.59;110478;1277;22813;-72
2024/03/07 02:43:56;;;;;;;3.90;3.40;;;;;;;5.18;89.72;95309.34;110490;1276;22108;-72
2024/03/07 02:46:25;;;;;;;4.60;3.40;;;;;;;5.17;89.56;95313.17;110317;1276;22104;-72
2024/03/07 02:48:56;;;;;;;5.10;4.00;;;;;;;5.09;89.24;95313.54;110509;1277;22197;-72
2024/03/07 02:51:31;;;;;;;5.00;3.60;;;;;;;4.99;89.31;95316.00;110522;1277;22414;-72
2024/03/07 02:54:05;;;;;;;5.00;3.70;;;;;;;4.96;89.59;95314.61;110488;1276;22107;-72
2024/03/07 02:56:46;;;;;;;5.80;4.80;;;;;;;4.96;89.56;95316.36;110346;1276;22203;-72
2024/03/07 02:59:18;;;;;;;7.10;5.30;;;;;;;4.97;89.79;95318.63;110315;1277;22129;-73
2024/03/07 03:01:46;;;;;;;7.70;5.00;;;;;;;5.01;89.82;95319.48;110524;1277;22747;-72
2024/03/07 03:04:39;;;;;;;6.10;4.40;;;;;;;4.99;89.44;95317.92;110509;1276;22133;-72
2024/03/07 03:07:17;;;;;;;7.70;5.20;;;;;;;4.93;89.32;95325.59;110524;1275;22179;-72
2024/03/07 03:09:46;;;;;;;7.50;5.10;;;;;;;4.89;89.27;95325.95;110295;1276;22166;-72
2024/03/07 03:12:20;;;;;;;9.30;6.20;;;;;;;4.83;89.24;95325.61;110305;1277;22122;-72
2024/03/07 03:14:49;;;;;;;10.70;5.80;;;;;;;4.79;89.22;95332.40;110492;1277;22230;-72
2024/03/07 03:17:23;;;;;;;9.20;6.30;;;;;;;4.79;89.51;95331.89;110292;1277;22789;-72
2024/03/07 03:19:56;;;;;;;11.00;6.00;;;;;;;4.77;89.42;95331.02;110532;1277;22135;-72
2024/03/07 03:22:28;;;;;;;9.40;6.10;;;;;;;4.79;89.48;95335.19;110550;1265;22715;-73
2024/03/07 03:28:00;;;;;;;;;;;;;;;;;;;;;
2024/03/07 03:30:37;;;;;;;11.00;7.10;;;;;;;4.69;89.18;95336.41;110485;1277;22214;-72
2024/03/07 03:33:18;;;;;;;10.20;6.70;;;;;;;4.69;89.18;95339.20;110541;1276;22145;-72
2024/03/07 03:36:10;;;;;;;10.60;7.20;;;;;;;4.67;89.21;95341.12;110308;1277;22870;-72
2024/03/07 03:39:16;;;;;;;;;;;;;;;;;;;;;
2024/03/07 03:41:44;;;;;;;9.90;6.30;;;;;;;4.55;88.77;95341.11;110292;1277;22810;-72
2024/03/07 03:44:38;;;;;;;10.00;7.00;;;;;;;4.53;88.84;95341.28;110309;1278;22121;-73
2024/03/07 03:47:34;;;;;;;11.10;7.70;;;;;;;4.54;88.85;95341.13;110459;1274;22182;-72
2024/03/07 03:50:23;;;;;;;10.50;7.10;;;;;;;4.52;88.74;95345.46;110267;1277;22094;-72
2024/03/07 03:53:03;;;;;;;10.10;7.40;;;;;;;4.50;88.67;95343.73;110295;1277;22144;-72
2024/03/07 03:55:32;;;;;;;8.30;6.30;;;;;;;4.48;88.74;95347.02;110300;1277;22132;-72
2024/03/07 03:58:40;;;;;;;9.50;7.00;;;;;;;4.47;88.67;95349.30;110307;1278;22117;-72
2024/03/07 04:01:13;;;;;;;;;;;;;;;4.46;88.83;95346.34;110306;1277;23202;-72
2024/03/07 04:03:46;;;;;;;10.40;6.10;;;;;;;4.42;88.61;95345.98;110282;1277;22945;-72
2024/03/07 04:06:42;;;;;;;10.60;6.80;;;;;;;4.44;88.57;95349.29;110267;1277;22120;-72
2024/03/07 04:09:49;;;;;;;;;;;;;;;;;;;;;
2024/03/07 04:12:41;;;;;;;7.60;5.30;;;;;;;4.27;88.40;95349.10;110238;1277;22108;-71
2024/03/07 04:15:12;;;;;;;9.00;6.40;;;;;;;4.26;88.68;95348.73;110281;1277;22118;-71
2024/03/07 04:17:41;;;;;;;7.50;5.30;;;;;;;4.24;88.85;95354.49;110394;1277;22125;-71
2024/03/07 04:20:13;;;;;;;8.90;6.00;;;;;;;4.24;89.03;95354.83;110273;1277;22137;-71
2024/03/07 04:23:15;;;;;;;;;;;;;;;;;;;;;
2024/03/07 04:26:07;;;;;;;;;;;;;;;;;;;;;
2024/03/07 04:28:50;;;;;;;11.20;7.40;;;;;;;4.09;88.58;95362.11;110526;1276;22099;-72
2024/03/07 04:31:31;;;;;;;13.80;11.40;;;;;;;4.08;88.67;95363.85;110526;1276;22198;-71
2024/03/07 04:34:48;;;;;;;11.90;8.70;;;;;;;4.06;88.65;95363.15;110524;1276;22206;-71
2024/03/07 04:37:47;;;;;;;13.60;9.80;;;;;;;4.05;88.87;95369.75;110537;1276;22088;-72
2024/03/07 04:40:46;;;;;;;13.90;9.10;;;;;;;4.03;88.74;95372.38;110377;1275;22098;-72
2024/03/07 04:43:13;;;;;;;14.60;10.20;;;;;;;3.95;88.81;95370.09;110468;1275;22177;-71
2024/03/07 04:45:42;;;;;;;14.50;9.30;;;;;;;3.95;88.81;95370.42;110604;1275;22119;-71
2024/03/07 04:48:16;;;;;;;14.30;9.50;;;;;;;3.94;88.80;95373.55;110612;1275;22859;-71
2024/03/07 04:50:57;;;;;;;22.90;20.20;;;;;;;3.91;88.80;95371.63;110608;1275;22745;-72
2024/03/07 04:53:25;;;;;;;15.20;12.00;;;;;;;3.87;88.88;95375.27;110602;1275;22933;-72
2024/03/07 04:55:55;;;;;;;16.60;11.10;;;;;;;3.89;88.95;95375.96;110602;1275;22118;-71
2024/03/07 04:58:24;;;;;;;16.50;11.50;;;;;;;3.89;89.20;95375.61;110817;1268;22911;-72
2024/03/07 05:00:53;;;;;;;14.80;10.80;;;;;;;3.88;89.00;95375.96;110418;1275;22298;-72
2024/03/07 05:03:22;;;;;;;14.20;9.30;;;;;;;3.89;89.10;95378.94;110620;1275;22099;-71
2024/03/07 05:06:10;;;;;;;13.00;9.30;;;;;;;3.89;88.99;95379.10;110596;1275;22998;-72
2024/03/07 05:09:21;;;;;;;;;;;;;;;;;;;;;
2024/03/07 05:11:55;;;;;;;14.00;8.50;;;;;;;3.89;88.90;95382.07;110597;1275;22879;-72
2024/03/07 05:14:45;;;;;;;26.40;20.40;;;;;;;3.88;88.75;95391.27;110567;1275;22179;-72
2024/03/07 05:17:37;;;;;;;19.30;13.10;;;;;;;3.83;88.74;95390.73;110642;1275;22133;-72
2024/03/07 05:20:10;;;;;;;40.20;29.00;;;;;;;3.74;89.15;95394.70;110622;1275;22843;-72
2024/03/07 05:23:25;;;;;;;47.10;36.10;;;;;;;3.74;89.21;95393.14;110313;1275;22902;-72
2024/03/07 05:25:34;;;;;;;20.60;15.40;;;;;;;3.74;89.38;95396.96;110544;1275;22995;-72
2024/03/07 05:28:06;;;;;;;16.30;11.10;;;;;;;3.75;89.23;95398.00;110617;1275;22802;-72
2024/03/07 05:30:38;;;;;;;14.80;10.90;;;;;;;3.72;89.14;95401.13;110550;1275;22117;-71
2024/03/07 05:33:07;;;;;;;19.40;14.00;;;;;;;3.71;89.51;95404.79;110581;1275;22089;-72
2024/03/07 05:35:38;;;;;;;14.30;10.20;;;;;;;3.68;89.45;95404.77;110599;1275;22103;-72
2024/03/07 05:38:11;;;;;;;18.00;8.80;;;;;;;3.67;89.43;95404.06;110588;1275;22101;-72
2024/03/07 05:40:44;;;;;;;17.80;11.40;;;;;;;3.72;89.58;95410.00;110620;1275;22120;-71
2024/03/07 05:43:13;;;;;;;14.50;9.60;;;;;;;3.75;89.48;95410.89;110574;1275;22114;-72
2024/03/07 05:45:42;;;;;;;14.70;9.30;;;;;;;3.79;89.44;95410.73;110579;1275;22251;-72
2024/03/07 05:48:17;;;;;;;14.80;9.00;;;;;;;3.83;89.45;95410.23;110627;1275;22117;-72
2024/03/07 05:50:56;;;;;;;16.90;10.40;;;;;;;3.87;89.28;95409.20;110617;1275;22149;-71
2024/03/07 05:53:45;;;;;;;19.20;13.80;;;;;;;3.89;89.12;95410.25;110637;1275;22729;-71
2024/03/07 05:56:46;;;;;;;18.30;11.50;;;;;;;3.90;89.02;95413.91;110613;1275;22831;-71
2024/03/07 05:59:16;;;;;;;16.00;10.10;;;;;;;3.92;89.23;95416.52;110462;1275;22212;-73
2024/03/07 06:01:51;;;;;;;19.30;14.20;;;;;;;3.91;89.06;95418.78;110615;1275;22087;-72
2024/03/07 06:04:45;;;;;;;17.60;11.70;;;;;;;3.92;89.10;95422.45;110565;1275;22200;-73
2024/03/07 06:07:17;;;;;;;20.40;14.90;;;;;;;3.91;89.22;95418.27;110581;1275;23024;-72
2024/03/07 06:09:48;;;;;;;18.30;12.30;;;;;;;3.94;89.05;95420.37;110586;1275;22917;-71
2024/03/07 06:12:23;;;;;;;22.30;15.90;;;;;;;3.94;89.06;95419.49;110584;1275;22123;-72
2024/03/07 06:14:55;;;;;;;16.30;11.50;;;;;;;3.93;88.99;95421.76;110446;1275;22109;-72
2024/03/07 06:18:34;;;;;;;16.80;12.10;;;;;;;3.95;88.98;95422.81;110598;1275;22169;-74
2024/03/07 06:21:33;;;;;;;17.20;12.90;;;;;;;3.95;89.11;95420.71;110611;1275;22127;-71
2024/03/07 06:24:46;;;;;;;17.10;12.90;;;;;;;3.97;88.97;95424.20;110590;1275;22169;-72
2024/03/07 06:27:26;;;;;;;14.60;9.70;;;;;;;4.00;89.09;95423.88;110549;1275;22161;-73
2024/03/07 06:29:59;;;;;;;18.30;12.80;;;;;;;4.03;88.85;95424.92;110478;1274;22133;-73
2024/03/07 06:32:53;;;;;;;15.30;11.80;;;;;;;4.05;88.66;95426.15;110511;1275;22136;-72
2024/03/07 06:35:47;;;;;;;13.60;8.80;;;;;;;4.07;88.86;95429.98;110547;1275;22102;-72
2024/03/07 06:38:21;;;;;;;14.40;8.90;;;;;;;4.05;88.49;95430.51;110586;1275;22118;-72
2024/03/07 06:41:15;;;;;;;12.50;8.20;;;;;;;4.03;88.53;95432.58;110577;1275;22258;-70
2024/03/07 06:44:00;;;;;;;11.90;8.60;;;;;;;4.07;88.96;95433.64;110587;1275;22108;-71
2024/03/07 06:46:33;;;;;;;12.90;7.70;;;;;;;4.07;88.94;95431.55;110550;1275;22137;-70
2024/03/07 06:49:21;;;;;;;13.20;9.40;;;;;;;4.11;88.93;95431.92;110312;1276;22631;-73
2024/03/07 06:51:56;;;;;;;11.50;8.30;;;;;;;4.14;88.87;95440.45;110578;1275;22256;-75
2024/03/07 06:54:50;;;;;;;45.50;29.60;;;;;;;4.15;88.54;95437.67;110539;1275;22385;-73
2024/03/07 06:57:59;;;;;;;16.50;11.00;;;;;;;4.15;88.58;95439.76;110524;1275;22832;-73
2024/03/07 07:00:40;;;;;;;13.50;8.60;;;;;;;4.18;88.60;95442.73;110490;1275;22353;-73
2024/03/07 07:03:19;;;;;;;;;;;;;;;;;;;;;
2024/03/07 07:06:09;;;;;;;10.00;7.10;;;;;;;4.17;88.58;95447.44;110555;1275;22244;-71
2024/03/07 07:08:41;;;;;;;13.40;8.10;;;;;;;4.18;88.62;95452.65;110562;1275;22113;-70
2024/03/07 07:11:44;;;;;;;;;;;;;;;;;;;;;
2024/03/07 07:14:25;;;;;;;12.70;8.10;;;;;;;4.16;88.79;95452.83;110574;1275;22117;-69
2024/03/07 07:16:58;;;;;;;10.00;7.70;;;;;;;4.15;88.88;95454.39;110562;1275;22110;-71
2024/03/07 07:19:30;;;;;;;12.10;7.90;;;;;;;4.14;88.91;95455.44;110582;1275;22158;-71
2024/03/07 07:22:24;;;;;;;11.00;8.60;;;;;;;4.16;88.78;95455.27;110603;1267;22319;-71
2024/03/07 07:25:21;;;;;;;12.70;9.10;;;;;;;4.14;88.85;95454.22;110626;1267;22161;-72
2024/03/07 07:27:47;;;;;;;;;;;;;;;4.10;89.05;95457.50;110534;1275;22410;-73
2024/03/07 07:30:22;;;;;;;12.70;8.20;;;;;;;4.09;89.11;95460.27;110501;1275;22240;-73
2024/03/07 07:33:12;;;;;;;14.60;10.30;;;;;;;4.11;89.25;95460.65;110485;1275;22106;-72
2024/03/07 07:35:50;;;;;;;14.20;10.00;;;;;;;4.07;88.89;95462.19;110535;1275;22270;-73
2024/03/07 07:38:50;;;;;;;22.90;13.70;;;;;;;4.05;89.35;95460.62;110556;1275;22156;-74
2024/03/07 07:41:21;;;;;;;18.00;12.60;;;;;;;4.07;89.53;95465.49;110596;1275;23134;-76
2024/03/07 07:44:00;;;;;;;15.00;9.60;;;;;;;4.07;89.43;95461.33;110568;1275;22185;-74
2024/03/07 07:46:43;;;;;;;17.30;10.80;;;;;;;4.08;89.74;95465.86;110540;1275;22197;-75
2024/03/07 07:49:42;;;;;;;;;;;;;;;;;;;;;
2024/03/07 07:52:47;;;;;;;19.00;14.30;;;;;;;4.09;89.39;95470.38;110449;1275;22169;-72
2024/03/07 07:55:40;;;;;;;22.70;14.60;;;;;;;4.07;89.35;95476.29;109890;1275;859212;-73
2024/03/07 07:58:20;;;;;;;207.50;91.90;;;;;;;4.07;89.48;95473.16;110458;1275;22335;-72
2024/03/07 08:01:20;;;;;;;310.90;153.30;;;;;;;4.07;89.47;95474.91;110575;1275;22282;-75
2024/03/07 08:04:22;;;;;;;62.00;34.90;;;;;;;4.10;89.63;95474.56;110506;1275;23045;-74
2024/03/07 08:07:42;;;;;;;54.30;32.50;;;;;;;4.10;89.92;95476.66;110503;1275;22193;-73
2024/03/07 08:10:20;;;;;;;22.00;14.40;;;;;;;4.09;89.92;95474.55;110356;1275;22917;-74
2024/03/07 08:13:33;;;;;;;20.00;13.20;;;;;;;4.12;90.02;95477.70;110556;1275;22147;-72
2024/03/07 08:16:26;;;;;;;20.70;13.30;;;;;;;4.15;90.02;95481.89;110549;1275;22188;-74
2024/03/07 08:19:16;;;;;;;22.50;14.60;;;;;;;4.18;90.13;95480.86;110593;1275;21994;-72
2024/03/07 08:22:07;;;;;;;25.40;16.20;;;;;;;4.20;89.89;95481.39;110564;1275;22163;-74
2024/03/07 08:24:46;;;;;;;26.60;15.40;;;;;;;4.20;89.73;95483.14;110534;1275;22251;-72
2024/03/07 08:27:20;;;;;;;28.50;21.00;;;;;;;4.21;89.65;95487.84;110558;1275;22228;-74
2024/03/07 08:29:55;;;;;;;26.80;17.70;;;;;;;4.23;89.45;95487.48;110552;1275;22555;-73
2024/03/07 08:32:55;;;;;;;30.90;21.50;;;;;;;4.28;89.57;95488.21;110507;1275;22770;-73
2024/03/07 08:35:25;;;;;;;24.70;15.60;;;;;;;4.34;89.38;95485.79;110554;1263;23163;-75
2024/03/07 08:37:57;;;;;;;23.80;15.10;;;;;;;4.37;89.46;95486.49;110236;1275;22160;-74
2024/03/07 08:40:34;;;;;;;25.00;15.70;;;;;;;4.40;89.43;95492.27;110499;1275;22230;-73
2024/03/07 08:43:26;;;;;;;27.60;16.40;;;;;;;4.44;89.41;95494.55;110556;1275;22172;-72
2024/03/07 08:46:06;;;;;;;31.00;20.00;;;;;;;4.52;89.67;95494.23;110554;1275;22781;-75
2024/03/07 08:48:57;;;;;;;26.40;16.20;;;;;;;4.59;89.17;95494.59;110564;1263;22316;-74
2024/03/07 08:51:26;;;;;;;30.90;22.20;;;;;;;4.59;88.52;95495.81;110452;1275;22159;-75
2024/03/07 08:53:58;;;;;;;27.60;19.50;;;;;;;4.58;88.55;95497.73;110552;1275;22190;-72
2024/03/07 08:56:58;;;;;;;31.10;19.90;;;;;;;4.60;88.41;95495.98;110547;1275;22188;-75
2024/03/07 08:59:52;;;;;;;27.60;16.40;;;;;;;4.63;88.76;95496.34;110514;1275;22967;-73
2024/03/07 09:02:27;;;;;;;29.10;18.90;;;;;;;4.69;88.77;95495.14;110533;1275;22193;-73
2024/03/07 09:05:06;;;;;;;25.70;16.80;;;;;;;4.69;88.32;95499.85;110549;1275;22241;-73
2024/03/07 09:08:05;;;;;;;25.70;17.00;;;;;;;4.70;88.39;95496.19;110530;1275;22136;-72
2024/03/07 09:10:36;;;;;;;25.80;16.50;;;;;;;4.72;88.14;95500.20;110489;1275;22722;-72
2024/03/07 09:13:08;;;;;;;27.00;15.70;;;;;;;4.76;88.31;95501.44;110558;1275;22902;-72
2024/03/07 09:15:40;;;;;;;26.60;16.30;;;;;;;4.82;88.44;95501.79;110567;1275;22153;-72
2024/03/07 09:18:30;;;;;;;;;;;;;;;;;;;;;
2024/03/07 09:21:00;;;;;;;28.10;17.60;;;;;;;4.88;87.80;95502.67;110555;1275;23392;-71
2024/03/07 09:23:49;;;;;;;29.10;17.00;;;;;;;4.94;87.96;95503.21;110543;1273;22119;-71
2024/03/07 09:26:38;;;;;;;26.90;17.10;;;;;;;4.95;87.36;95504.61;110542;1275;22133;-72
2024/03/07 09:29:27;;;;;;;23.90;15.90;;;;;;;4.94;87.19;95506.70;110545;1275;22841;-71
2024/03/07 09:32:37;;;;;;;28.70;17.30;;;;;;;4.93;87.22;95508.97;110565;1275;22834;-71
2024/03/07 09:35:13;;;;;;;26.70;16.70;;;;;;;4.93;87.02;95507.74;110491;1275;22145;-71
2024/03/07 09:37:48;;;;;;;28.30;17.40;;;;;;;4.94;87.09;95507.57;110540;1275;22221;-74
2024/03/07 09:40:57;;;;;;;27.30;16.80;;;;;;;5.00;87.28;95513.33;110551;1275;22148;-71
2024/03/07 09:43:35;;;;;;;28.30;16.00;;;;;;;5.01;87.01;95517.70;110539;1275;23001;-71
2024/03/07 09:46:47;;;;;;;28.10;17.90;;;;;;;4.95;86.42;95519.59;110612;1275;22091;-70
2024/03/07 09:49:25;;;;;;;25.40;15.40;;;;;;;4.90;86.72;95520.80;110560;1275;22255;-72
2024/03/07 09:52:18;;;;;;;28.00;17.40;;;;;;;4.92;86.85;95523.77;110538;1275;22121;-70
2024/03/07 09:55:13;;;;;;;28.70;17.10;;;;;;;4.92;86.84;95522.91;110560;1275;22171;-72
2024/03/07 09:57:50;;;;;;;32.50;18.50;;;;;;;4.93;86.68;95527.09;110553;1275;22506;-70
2024/03/07 10:01:00;;;;;;;31.40;18.40;;;;;;;4.93;86.76;95526.20;110485;1276;22206;-70
2024/03/07 10:04:12;;;;;;;25.20;17.70;;;;;;;4.96;86.66;95523.44;110538;1275;22754;-73
2024/03/07 10:07:45;;;;;;;30.10;18.00;;;;;;;4.96;86.46;95526.73;110585;1275;22192;-70
2024/03/07 10:10:03;;;;;;;27.10;17.50;;;;;;;5.00;86.61;95525.37;110468;1275;23174;-71
2024/03/07 10:12:37;;;;;;;28.70;17.50;;;;;;;5.05;86.98;95525.72;110530;1267;22168;-72
2024/03/07 10:15:19;;;;;;;;;;;;;;;;;;;;;
2024/03/07 10:17:58;;;;;;;30.10;17.00;;;;;;;5.22;87.23;95528.00;110530;1275;22139;-71
2024/03/07 10:20:30;;;;;;;27.00;17.50;;;;;;;5.23;87.01;95530.63;110491;1275;22189;-71
2024/03/07 10:23:23;;;;;;;32.40;17.80;;;;;;;5.29;87.10;95534.30;110566;1270;22148;-72
2024/03/07 10:26:07;;;;;;;27.40;16.70;;;;;;;5.34;86.62;95533.77;110449;1275;22230;-73
2024/03/07 10:28:41;;;;;;;30.20;17.20;;;;;;;5.38;86.31;95534.82;110508;1275;22639;-72
2024/03/07 10:31:30;;;;;;;25.00;17.30;;;;;;;5.43;86.40;95535.88;110515;1275;22151;-72
2024/03/07 10:34:24;;;;;;;28.40;17.90;;;;;;;5.46;86.14;95533.95;110516;1275;22362;-72
2024/03/07 10:37:26;;;;;;;25.40;16.30;;;;;;;5.42;85.27;95535.34;110464;1275;22884;-73
2024/03/07 10:44:28;;;;;;;25.70;15.70;;;;;;;5.46;86.02;95530.10;110403;1275;22130;-71
2024/03/07 10:47:03;;;;;;;25.60;16.20;;;;;;;5.49;85.91;95528.54;110414;1275;22752;-71
2024/03/07 10:50:12;;;;;;;30.40;16.70;;;;;;;5.55;86.12;95523.65;110583;1275;22113;-71
2024/03/07 10:53:02;;;;;;;27.40;17.30;;;;;;;5.63;86.00;95524.17;110573;1274;22124;-71
2024/03/07 10:55:59;;;;;;;31.50;16.30;;;;;;;5.73;85.69;95530.27;110467;1275;22128;-71
2024/03/07 10:58:37;;;;;;;26.30;16.20;;;;;;;5.78;85.00;95529.39;110263;1275;22100;-71
2024/03/07 11:01:13;;;;;;;31.00;15.70;;;;;;;5.81;84.65;95531.14;110579;1275;22163;-71
2024/03/07 11:03:50;;;;;;;22.30;13.80;;;;;;;5.89;84.56;95533.40;110427;1274;22122;-71
2024/03/07 11:06:44;;;;;;;24.20;16.00;;;;;;;5.89;84.00;95532.02;110583;1275;22146;-71
2024/03/07 11:09:23;;;;;;;24.00;15.50;;;;;;;5.96;84.54;95530.98;110583;1274;22190;-71
2024/03/07 11:12:16;;;;;;;;;;;;;;;;;;;;;
2024/03/07 11:18:09;;;;;;;23.20;15.60;;;;;;;6.22;83.41;95524.12;110574;1275;22116;-71
2024/03/07 11:20:48;;;;;;;24.80;15.50;;;;;;;6.24;83.79;95523.05;110511;1275;22723;-71
2024/03/07 11:26:39;;;;;;;24.20;15.60;;;;;;;6.38;83.14;95519.67;110570;1275;22613;-71
2024/03/07 11:30:06;;;;;;;22.30;14.60;;;;;;;6.45;82.98;95520.17;110558;1275;22881;-71
2024/03/07 11:32:41;;;;;;;21.80;14.20;;;;;;;6.48;81.37;95522.78;110448;1275;22256;-71
2024/03/07 11:35:22;;;;;;;21.80;14.30;;;;;;;6.48;81.69;95519.65;110560;1275;22139;-71
2024/03/07 11:38:23;;;;;;;21.70;14.70;;;;;;;6.54;82.12;95523.30;110455;1275;22148;-71
2024/03/07 11:41:13;;;;;;;;;;;;;;;6.58;82.06;95523.63;110574;1275;23344;-71
2024/03/07 11:44:26;;;;;;;19.50;12.40;;;;;;;6.55;81.13;95524.34;110545;1275;22118;-71
2024/03/07 11:47:16;;;;;;;20.30;14.00;;;;;;;6.57;81.09;95521.71;110550;1275;22168;-71
2024/03/07 11:50:19;;;;;;;22.50;14.60;;;;;;;6.61;80.89;95523.79;110485;1274;22134;-71
2024/03/07 11:52:44;;;;;;;22.60;13.40;;;;;;;6.64;80.42;95521.86;110521;1275;22123;-71
2024/03/07 11:55:25;;;;;;;23.00;13.10;;;;;;;6.71;80.21;95518.85;110560;1275;22069;-71
2024/03/07 11:58:01;;;;;;;20.70;12.90;;;;;;;6.75;79.93;95519.16;110504;1274;22944;-70
2024/03/07 12:00:40;;;;;;;20.70;12.60;;;;;;;6.74;78.37;95516.56;110586;1275;22138;-71
2024/03/07 12:03:37;;;;;;;22.20;13.10;;;;;;;6.76;79.50;95518.30;110518;1275;22778;-71
2024/03/07 12:06:13;;;;;;;19.30;12.10;;;;;;;6.79;79.08;95517.06;110546;1275;22112;-71
2024/03/07 12:08:43;;;;;;;21.00;13.00;;;;;;;6.85;79.53;95518.60;110560;1275;22108;-75
2024/03/07 12:11:18;;;;;;;21.80;13.60;;;;;;;6.94;79.94;95519.77;110563;1275;22328;-71
2024/03/07 12:14:23;;;;;;;;;;;;;;;;;;;;;
2024/03/07 12:17:14;;;;;;;19.60;11.70;;;;;;;7.07;79.69;95517.94;110542;1275;22281;-71
2024/03/07 12:20:24;;;;;;;19.50;12.40;;;;;;;7.05;79.24;95520.59;110547;1275;22180;-72
2024/03/07 12:23:33;;;;;;;;;;;;;;;;;;;;;
2024/03/07 12:26:05;;;;;;;16.70;11.40;;;;;;;6.98;78.56;95520.28;110541;1275;22311;-71
2024/03/07 12:28:54;;;;;;;17.50;11.60;;;;;;;6.95;78.79;95519.42;110533;1275;22126;-71
2024/03/07 12:31:26;;;;;;;17.90;10.60;;;;;;;6.92;78.88;95522.23;110582;1275;22117;-71
2024/03/07 12:34:49;;;;;;;18.40;11.40;;;;;;;6.86;78.37;95520.69;110562;1274;22228;-72
2024/03/07 12:37:26;;;;;;;16.40;11.30;;;;;;;6.82;78.68;95521.94;110568;1275;22102;-72
2024/03/07 12:40:15;;;;;;;;;;;;;;;;;;;;;
2024/03/07 12:42:57;;;;;;;18.10;11.30;;;;;;;6.89;79.59;95520.50;110534;1275;22391;-71
2024/03/07 12:45:28;;;;;;;17.20;11.10;;;;;;;6.97;79.59;95518.19;110538;1274;22114;-71
2024/03/07 12:48:07;;;;;;;14.70;10.50;;;;;;;7.00;79.45;95520.27;110577;1275;22816;-71
2024/03/07 12:50:40;;;;;;;18.40;11.50;;;;;;;7.01;79.63;95524.46;110510;1275;22125;-71
2024/03/07 12:54:01;;;;;;;16.40;10.90;;;;;;;7.00;79.41;95524.98;110565;1275;22202;-71
2024/03/07 12:56:34;;;;;;;17.40;10.60;;;;;;;6.95;79.12;95524.33;110572;1275;22688;-71
2024/03/07 12:59:09;;;;;;;18.10;11.30;;;;;;;6.94;79.63;95526.05;110530;1275;22127;-72
2024/03/07 13:02:09;;;;;;;16.80;11.60;;;;;;;6.94;79.38;95528.00;110601;1274;22249;-71
2024/03/07 13:04:44;;;;;;;15.40;11.60;;;;;;;6.90;79.17;95528.90;110465;1275;22119;-72
2024/03/07 13:07:16;;;;;;;13.30;10.30;;;;;;;6.84;79.33;95530.66;110566;1275;22309;-72
2024/03/07 13:09:47;;;;;;;21.90;12.30;;;;;;;6.75;79.50;95531.94;110551;1275;22195;-71
2024/03/07 13:12:15;;;;;;;17.80;12.90;;;;;;;6.66;79.67;95532.33;110593;1275;22237;-72